Rochester, NH

2:54 PM EST on February 14, 2016 (GMT -0500)
Skyhaven | | Change Station
CLOSE
Current Station
Airport
Location: Rochester,
Elevation: 322 ft
Nearby Weather Stations

Elev 322 ft 43.28 °N, 70.92 °W | Updated 3 minutes ago

Clear
Clear
7 °F
Feels Like -12 °F
N
18
Wind Variable Wind from WNW
Gusts 26 mph

Today
High -- | Low -- °F
--% Chance of Precip.
Yesterday
High -- | Low -- °F
Precip. -- in
Pressure 30.31 in
Visibility 10.0 miles
Clouds Clear
Windchill -12 °F
Dew Point -17 °F
Humidity 33%
Rainfall 0.00 in
Snow Depth Not available.
6:43 AM 5:12 PM
Waxing Crescent, 44% visible
METAR KDAW 141951Z AUTO 30016G23KT 10SM CLR M14/M27 A3029 RMK AO2 SLP264 T11391272
Pressure 30.31 in
Visibility 10.0 miles
Clouds Clear
Windchill -12 °F
Dew Point -17 °F
Humidity 33%
Rainfall 0.00 in
Snow Depth Not available.
6:43 AM 5:12 PM
Waxing Crescent, 44% visible
METAR KDAW 141951Z AUTO 30016G23KT 10SM CLR M14/M27 A3029 RMK AO2 SLP264 T11391272

10-Day Weather Forecast

Almanac

Astronomy

Feb. 14, 2016 Rise Set
Actual Time
Civil Twilight
Nautical Twilight
Astronomical Twilight
Moon
Length of Visible Light
Length of Day
Tomorrow will be .
, % of the Moon is Illuminated

Today's Extremes

State Highs State Lows

Community

WunderPhotos

Upload Photos

1,892,879 photos uploaded!

WunderBlog® & News

Nearby

Air Quality

  Air Quality AQ Index Pollutant
Not available.

Snow Depth

Station Depth Elevation

Earthquake Activity

City Distance Mag. Time & Date
Minimum magnitude displayed is 2.5.

Coastal Water Temperatures

Place Temperature

Stations

Nearby Weather Stations

Station Location Temp. Windchill Dew Point Humidity Wind Precip. Elev Updated Type
                   

Watches & Warnings

There are currently no watches in effect.